NFTV

Details ICAO NFTV (VAV)
Name VAVAU INTL
Region Fiji and Tonga
Timezone Pacific/Tongatapu (UTC+14.0)
Plans Departing 4
Arriving 8
Stats Elevation 236 ft / 72 m (AMSL)
Location -18.585490° -173.962837°
Runways 1
Magnetic Variation 12.880° E
Sunrise 2017-12-13 16:54:42 UTC / 2017-12-14 06:54:42 Local
Sunset 2017-12-14 06:08:41 UTC / 2017-12-14 20:08:41 Local
Advertisement - Login to hide

Runways

ID Width Length Bearing (true) Bearing (mag) Surface Threshold Offset Overrun Length
08 98 ft / 30 m 5,581 ft / 1,701 m 96.20° 83.32° Asphalt 1,677 ft / 511 m 0 ft / 0 m
26 98 ft / 30 m 5,581 ft / 1,701 m 276.20° 263.32° Asphalt 988 ft / 301 m 0 ft / 0 m

Map

Weather


0- 5 10 15 20 25 30 35+ Temperature / ° C

Clouds and Precipitation
Forecast for 2017-12-14 12:00 UTC. Updated an hour ago

Ground ~20,000 ft ~40,000 ft Winds

METAR

Not found

TAF

TAF NFTV 140519Z 1406/1506 11007KT 9999 FEW009 SCT017

Frequencies

Tower 118.10 MHz FLT SVC
Warning: Do not use this data for real-world aviation or navigation. No guarantee of current accuracy is given.